Search for airport 
image banner adimage banner adimage banner ad
image banner ad

CFD8 - Fort Simpson (Great Slave No. 2)

Located in , Canada

ICAO - CFD8, IATA -

Data provided by Airmate  

General information

Coordinates: N61°50'12" W121°19'30"
Elevation is 480 feet MSL.
Magnetic variation is 20.6869° East
View others Airports in Northwest Territories

Operational data

Special qualification required
Current time UTC:
Current local time:
Weather at : CYFS - Fort Simpson ( 10 km )
METAR: CYFS 221400Z VRB04G15KT 15SM FEW210 03/M00 A2958 RMK CI1 SLP028
TAF: TAF CYFS 221138Z 2212/2224 12005KT P6SM FEW210 BECMG 2216/2218 12010G20KT RMK NXT FCST BY 221800Z
View NOTAMs / SUP AIP / TFR affecting this airport [VIEW]
Communications frequencies: [VIEW]

Runways:

Airport contact information

Address: Canada

Satellite view of CFD8